createdAt,value
2023-05-06T00:01:57.779Z,17.90
2023-05-06T00:04:26.932Z,18.00
2023-05-06T00:06:56.110Z,18.02
2023-05-06T00:09:24.207Z,18.01
2023-05-06T00:11:52.078Z,18.04
2023-05-06T00:14:19.926Z,18.10
2023-05-06T00:16:47.722Z,18.06
2023-05-06T00:19:15.415Z,18.11
2023-05-06T00:21:44.452Z,18.07
2023-05-06T00:24:12.444Z,18.02
2023-05-06T00:26:40.174Z,18.02
2023-05-06T00:29:07.876Z,18.22
2023-05-06T00:31:35.627Z,18.23
2023-05-06T00:34:03.374Z,18.22
2023-05-06T00:36:31.594Z,18.23
2023-05-06T00:39:01.028Z,18.17
2023-05-06T00:41:32.389Z,18.14
2023-05-06T00:44:00.137Z,18.15
2023-05-06T00:46:28.362Z,18.05
2023-05-06T00:48:56.799Z,18.00
2023-05-06T00:51:24.622Z,18.11
2023-05-06T00:53:52.471Z,18.09
2023-05-06T00:56:21.726Z,18.09
2023-05-06T00:58:49.535Z,18.02
2023-05-06T01:01:17.530Z,17.97
2023-05-06T01:03:45.583Z,17.90
2023-05-06T01:06:21.412Z,17.89
2023-05-06T01:08:58.692Z,17.61
2023-05-06T01:11:38.832Z,17.77
2023-05-06T01:14:15.739Z,17.69
2023-05-06T01:16:44.348Z,17.52
2023-05-06T01:19:19.701Z,17.71
2023-05-06T01:21:48.898Z,17.91
2023-05-06T01:24:17.983Z,17.94
2023-05-06T01:26:45.767Z,17.78
2023-05-06T01:29:13.584Z,17.84
2023-05-06T01:31:49.960Z,17.94
2023-05-06T01:34:27.191Z,17.92
2023-05-06T01:37:05.889Z,18.00
2023-05-06T01:39:35.573Z,17.95
2023-05-06T01:42:04.553Z,17.99
2023-05-06T01:44:34.877Z,17.72
2023-05-06T01:47:03.374Z,17.96
2023-05-06T01:49:31.339Z,17.96
2023-05-06T01:51:59.546Z,17.56
2023-05-06T01:54:27.218Z,17.75
2023-05-06T01:56:56.220Z,17.74
2023-05-06T01:59:24.008Z,17.71
2023-05-06T02:01:51.810Z,17.72
2023-05-06T02:04:19.508Z,17.60
2023-05-06T02:06:47.221Z,17.71
2023-05-06T02:09:14.908Z,17.87
2023-05-06T02:11:42.705Z,17.92
2023-05-06T02:14:11.870Z,17.85
2023-05-06T02:16:39.664Z,17.79
2023-05-06T02:19:07.579Z,17.72
2023-05-06T02:21:35.858Z,17.71
2023-05-06T02:24:03.621Z,17.64
2023-05-06T02:26:31.358Z,17.67
2023-05-06T02:28:59.111Z,17.60
2023-05-06T02:31:28.319Z,17.53
2023-05-06T02:33:56.124Z,17.77
2023-05-06T02:36:23.808Z,17.72
2023-05-06T02:38:51.545Z,17.97
2023-05-06T02:41:19.244Z,17.82
2023-05-06T02:43:47.059Z,17.71
2023-05-06T02:46:14.809Z,17.65
2023-05-06T02:48:43.887Z,17.78
2023-05-06T02:51:11.872Z,17.85
2023-05-06T02:53:39.633Z,17.83
2023-05-06T02:56:07.710Z,17.92
2023-05-06T02:58:35.476Z,17.80
2023-05-06T03:01:03.251Z,17.69
2023-05-06T03:03:31.003Z,17.82
2023-05-06T03:06:00.145Z,17.81
2023-05-06T03:08:27.809Z,17.79
2023-05-06T03:10:55.585Z,17.68
2023-05-06T03:13:23.433Z,17.76
2023-05-06T03:15:53.786Z,17.74
2023-05-06T03:18:21.630Z,17.77
2023-05-06T03:20:50.209Z,17.65
2023-05-06T03:23:19.343Z,17.33
2023-05-06T03:25:47.213Z,17.40
2023-05-06T03:28:15.043Z,17.57
2023-05-06T03:30:42.800Z,17.51
2023-05-06T03:33:10.820Z,17.48
2023-05-06T03:35:38.554Z,17.36
2023-05-06T03:38:06.306Z,17.46
2023-05-06T03:40:35.542Z,17.62
2023-05-06T03:43:03.269Z,17.55
2023-05-06T03:45:30.997Z,17.71
2023-05-06T03:47:58.765Z,17.70
2023-05-06T03:50:26.801Z,17.55
2023-05-06T03:52:54.760Z,17.60
2023-05-06T03:55:22.487Z,17.73
2023-05-06T03:57:51.511Z,17.93
2023-05-06T04:00:19.540Z,17.95
2023-05-06T04:02:47.303Z,18.02
2023-05-06T04:05:15.342Z,18.09
2023-05-06T04:07:43.057Z,18.21
2023-05-06T04:10:11.429Z,18.24
2023-05-06T04:12:39.130Z,18.08
2023-05-06T04:15:09.611Z,17.86
2023-05-06T04:17:37.583Z,17.78
2023-05-06T04:20:07.075Z,17.65
2023-05-06T04:22:34.831Z,17.69
2023-05-06T04:25:02.544Z,17.91
2023-05-06T04:27:32.058Z,17.89
2023-05-06T04:29:59.872Z,17.91
2023-05-06T04:32:29.016Z,17.88
2023-05-06T04:34:57.144Z,17.83
2023-05-06T04:37:25.057Z,17.97
2023-05-06T04:39:52.963Z,17.68
2023-05-06T04:42:20.667Z,17.79
2023-05-06T04:44:48.810Z,17.68
2023-05-06T04:47:16.516Z,17.85
2023-05-06T04:49:45.851Z,17.97
2023-05-06T04:52:13.639Z,17.95
2023-05-06T04:54:42.170Z,17.93
2023-05-06T04:57:11.365Z,17.93
2023-05-06T04:59:39.047Z,17.96
2023-05-06T05:02:06.884Z,17.79
2023-05-06T05:04:34.671Z,17.87
2023-05-06T05:07:03.701Z,17.88
2023-05-06T05:09:31.413Z,17.70
2023-05-06T05:11:59.128Z,17.75
2023-05-06T05:14:26.802Z,17.89
2023-05-06T05:16:54.593Z,17.69
2023-05-06T05:19:22.335Z,17.86
2023-05-06T05:21:50.109Z,17.78
2023-05-06T05:24:19.228Z,17.83
2023-05-06T05:26:48.007Z,17.78
2023-05-06T05:29:15.703Z,17.80
2023-05-06T05:31:43.406Z,17.84
2023-05-06T05:34:11.340Z,17.67
2023-05-06T05:36:39.070Z,17.80
2023-05-06T05:39:06.781Z,17.78
2023-05-06T05:41:35.804Z,17.90
2023-05-06T05:44:03.692Z,17.89
2023-05-06T05:46:31.501Z,17.95
2023-05-06T05:48:59.227Z,17.94
2023-05-06T05:51:26.944Z,17.96
2023-05-06T05:53:54.703Z,17.97
2023-05-06T05:56:22.372Z,17.95
2023-05-06T05:58:51.515Z,18.07
2023-05-06T06:01:19.258Z,17.96
2023-05-06T06:03:47.740Z,17.98
2023-05-06T06:06:15.686Z,18.14
2023-05-06T06:08:43.447Z,18.28
2023-05-06T06:11:11.126Z,18.32
2023-05-06T06:13:38.912Z,18.51
2023-05-06T06:16:08.409Z,18.49
2023-05-06T06:18:36.273Z,18.34
2023-05-06T06:21:04.094Z,18.27
2023-05-06T06:23:31.823Z,18.32
2023-05-06T06:25:59.757Z,18.26
2023-05-06T06:28:27.449Z,18.27
2023-05-06T06:30:55.275Z,18.40
2023-05-06T06:33:24.330Z,18.50
2023-05-06T06:35:52.071Z,18.53
2023-05-06T06:38:20.070Z,18.51
2023-05-06T06:40:47.798Z,18.52
2023-05-06T06:43:15.539Z,18.51
2023-05-06T06:45:43.292Z,18.69
2023-05-06T06:48:11.324Z,18.74
2023-05-06T06:50:40.499Z,18.85
2023-05-06T06:53:08.203Z,19.02
2023-05-06T06:55:36.200Z,19.09
2023-05-06T06:58:04.037Z,19.10
2023-05-06T07:00:31.788Z,19.24
2023-05-06T07:02:59.556Z,19.23
2023-05-06T07:05:27.879Z,19.25
2023-05-06T07:07:57.034Z,19.42
2023-05-06T07:10:24.795Z,19.36
2023-05-06T07:12:52.859Z,19.61
2023-05-06T07:15:20.732Z,19.47
2023-05-06T07:17:48.646Z,19.55
2023-05-06T07:20:16.648Z,19.60
2023-05-06T07:22:45.641Z,19.69
2023-05-06T07:25:15.029Z,19.61
2023-05-06T07:27:42.727Z,19.70
2023-05-06T07:30:11.223Z,19.81
2023-05-06T07:32:40.953Z,19.81
2023-05-06T07:35:10.261Z,19.93
2023-05-06T07:37:38.270Z,19.65
2023-05-06T07:40:07.207Z,19.50
2023-05-06T07:42:36.250Z,19.38
2023-05-06T07:45:04.204Z,19.29
2023-05-06T07:47:33.374Z,19.30
2023-05-06T07:50:01.210Z,19.12
2023-05-06T07:52:29.020Z,19.13
2023-05-06T07:54:56.758Z,19.13
2023-05-06T07:57:24.478Z,19.08
2023-05-06T07:59:53.848Z,19.14
2023-05-06T08:02:21.801Z,19.36
2023-05-06T08:04:51.594Z,19.11
2023-05-06T08:07:19.900Z,19.33
2023-05-06T08:09:47.650Z,19.49
2023-05-06T08:12:15.801Z,19.60
2023-05-06T08:14:43.509Z,19.39
2023-05-06T08:17:14.097Z,19.42
2023-05-06T08:19:41.777Z,19.39
2023-05-06T08:22:09.514Z,19.55
2023-05-06T08:24:37.223Z,19.63
2023-05-06T08:27:05.172Z,19.40
2023-05-06T08:29:33.248Z,19.21
2023-05-06T08:32:01.483Z,19.45
2023-05-06T08:34:30.867Z,19.45
2023-05-06T08:36:58.532Z,19.52
2023-05-06T08:39:27.857Z,19.35
2023-05-06T08:41:57.324Z,19.32
2023-05-06T08:44:26.110Z,19.32
2023-05-06T08:46:54.129Z,19.10
2023-05-06T08:49:21.911Z,19.33
2023-05-06T08:51:52.775Z,19.06
2023-05-06T08:54:20.536Z,18.67
2023-05-06T08:56:53.120Z,18.34
2023-05-06T08:59:25.878Z,18.61
2023-05-06T09:01:54.222Z,18.63
2023-05-06T09:04:22.099Z,18.44
2023-05-06T09:06:51.129Z,18.88
2023-05-06T09:09:18.793Z,19.14
2023-05-06T09:11:48.198Z,18.86
2023-05-06T09:14:17.971Z,19.26
2023-05-06T09:16:48.036Z,19.24
2023-05-06T09:19:17.196Z,18.99
2023-05-06T09:21:47.081Z,18.95
2023-05-06T09:24:17.164Z,19.03
2023-05-06T09:26:46.109Z,19.02
2023-05-06T09:29:14.194Z,18.68
2023-05-06T09:31:43.020Z,18.99
2023-05-06T09:34:10.869Z,19.04
2023-05-06T09:36:38.592Z,19.30
2023-05-06T09:39:06.401Z,19.29
2023-05-06T09:41:36.511Z,19.41
2023-05-06T09:44:05.682Z,19.85
2023-05-06T09:46:33.913Z,19.99
2023-05-06T09:49:02.048Z,20.19
2023-05-06T09:51:32.490Z,20.00
2023-05-06T09:54:01.677Z,19.81
2023-05-06T09:56:31.345Z,19.88
2023-05-06T09:59:04.249Z,20.40
2023-05-06T10:01:36.599Z,20.52
2023-05-06T10:04:09.292Z,20.69
2023-05-06T10:06:39.734Z,21.00
2023-05-06T10:09:09.136Z,21.34
2023-05-06T10:11:37.429Z,21.84
2023-05-06T10:14:08.008Z,21.85
2023-05-06T10:16:37.469Z,21.95
2023-05-06T10:19:08.097Z,22.29
2023-05-06T10:21:40.490Z,22.18
2023-05-06T10:24:12.015Z,22.06
2023-05-06T10:26:41.775Z,22.10
2023-05-06T10:29:12.700Z,22.33
2023-05-06T10:31:47.294Z,22.49
2023-05-06T10:34:16.980Z,22.22
2023-05-06T10:36:46.131Z,21.89
2023-05-06T10:39:14.752Z,22.06
2023-05-06T10:41:42.616Z,22.23
2023-05-06T10:44:12.875Z,21.89
2023-05-06T10:46:58.815Z,22.01
2023-05-06T10:49:26.655Z,22.00
2023-05-06T10:52:13.844Z,22.15
2023-05-06T10:54:52.249Z,22.33
2023-05-06T10:57:22.644Z,22.12
2023-05-06T10:59:54.475Z,21.57
2023-05-06T11:02:23.135Z,22.40
2023-05-06T11:04:52.858Z,22.73
2023-05-06T11:07:24.170Z,22.80
2023-05-06T11:09:55.734Z,22.23
2023-05-06T11:12:23.804Z,22.94
2023-05-06T11:14:52.906Z,22.91
2023-05-06T11:17:34.801Z,23.29
2023-05-06T11:20:22.390Z,23.26
2023-05-06T11:22:50.444Z,23.14
2023-05-06T11:25:43.024Z,23.17
2023-05-06T11:28:12.540Z,23.77
2023-05-06T11:30:43.293Z,24.20
2023-05-06T11:33:19.943Z,24.49
2023-05-06T11:35:47.654Z,24.45
2023-05-06T11:38:15.470Z,24.28
2023-05-06T11:40:43.531Z,23.25
2023-05-06T11:43:12.589Z,23.81
2023-05-06T11:45:46.778Z,23.41
2023-05-06T11:48:14.646Z,23.19
2023-05-06T11:50:47.119Z,23.20
2023-05-06T11:53:16.459Z,22.97
2023-05-06T11:55:45.268Z,23.11
2023-05-06T11:58:16.474Z,23.50
2023-05-06T12:00:51.862Z,23.75
2023-05-06T12:03:20.384Z,23.53
2023-05-06T12:05:49.032Z,23.36
2023-05-06T12:08:26.797Z,23.38
2023-05-06T12:10:57.009Z,22.34
2023-05-06T12:13:25.027Z,22.23
2023-05-06T12:15:55.780Z,22.87
2023-05-06T12:18:24.661Z,23.24
2023-05-06T12:20:55.036Z,23.56
2023-05-06T12:23:23.074Z,23.34
2023-05-06T12:26:01.581Z,23.14
2023-05-06T12:28:29.586Z,23.22
2023-05-06T12:30:58.722Z,23.30
2023-05-06T12:33:26.586Z,23.32
2023-05-06T12:35:57.070Z,23.43
2023-05-06T12:38:25.245Z,23.05
2023-05-06T12:40:55.509Z,23.30
2023-05-06T12:43:30.203Z,23.57
2023-05-06T12:46:06.400Z,23.70
2023-05-06T12:48:34.460Z,23.69
2023-05-06T12:51:02.275Z,24.10
2023-05-06T12:53:34.320Z,23.47
2023-05-06T12:56:02.195Z,24.01
2023-05-06T12:58:29.869Z,24.35
2023-05-06T13:00:57.725Z,24.38
2023-05-06T13:03:27.009Z,24.08
2023-05-06T13:05:54.886Z,23.94
2023-05-06T13:08:22.584Z,23.52
2023-05-06T13:10:50.333Z,23.96
2023-05-06T13:13:18.083Z,23.94
2023-05-06T13:15:45.967Z,23.93
2023-05-06T13:18:13.787Z,23.77
2023-05-06T13:20:42.902Z,23.05
2023-05-06T13:23:10.645Z,23.11
2023-05-06T13:25:48.148Z,23.47
2023-05-06T13:28:26.260Z,23.62
2023-05-06T13:30:53.992Z,23.26
2023-05-06T13:33:21.771Z,23.12
2023-05-06T13:35:50.784Z,23.23
2023-05-06T13:38:18.484Z,23.56
2023-05-06T13:40:48.172Z,23.53
2023-05-06T13:43:16.496Z,23.70
2023-05-06T13:45:44.815Z,23.47
2023-05-06T13:48:12.965Z,23.26
2023-05-06T13:50:42.631Z,22.93
2023-05-06T13:53:11.911Z,23.02
2023-05-06T13:55:40.215Z,23.14
2023-05-06T13:58:08.429Z,23.19
2023-05-06T14:00:36.987Z,23.13
2023-05-06T14:03:05.212Z,22.98
2023-05-06T14:05:33.486Z,23.16
2023-05-06T14:08:01.214Z,23.40
2023-05-06T14:10:30.386Z,23.33
2023-05-06T14:12:58.207Z,23.24
2023-05-06T14:15:26.005Z,22.71
2023-05-06T14:17:54.138Z,22.50
2023-05-06T14:20:21.953Z,22.63
2023-05-06T14:22:49.725Z,22.59
2023-05-06T14:27:46.731Z,22.70
2023-05-06T14:30:15.042Z,22.55
2023-05-06T14:32:43.575Z,22.53
2023-05-06T14:35:11.843Z,22.60
2023-05-06T14:37:39.811Z,22.48
2023-05-06T14:40:10.040Z,23.58
2023-05-06T14:42:38.049Z,24.32
2023-05-06T14:45:08.638Z,23.61
2023-05-06T14:47:36.463Z,23.50
2023-05-06T14:50:04.346Z,24.25
2023-05-06T14:52:32.098Z,24.04
2023-05-06T14:54:59.777Z,24.32
2023-05-06T14:57:27.502Z,24.32
2023-05-06T14:59:55.464Z,24.12
2023-05-06T15:02:24.513Z,24.12
2023-05-06T15:04:52.543Z,24.35
2023-05-06T15:07:20.216Z,24.55
2023-05-06T15:09:47.923Z,24.63
2023-05-06T15:12:16.495Z,24.52
2023-05-06T15:14:44.182Z,24.71
2023-05-06T15:17:13.434Z,23.87
2023-05-06T15:19:42.500Z,23.97
2023-05-06T15:22:10.190Z,23.41
2023-05-06T15:24:37.881Z,23.13
2023-05-06T15:27:05.727Z,23.63
2023-05-06T15:29:33.625Z,23.29
2023-05-06T15:32:01.410Z,23.26
2023-05-06T15:34:29.171Z,23.49
2023-05-06T15:37:01.528Z,23.05
2023-05-06T15:39:29.603Z,22.95
2023-05-06T15:41:59.511Z,22.77
2023-05-06T15:44:27.633Z,23.54
2023-05-06T15:46:55.323Z,23.73
2023-05-06T15:51:53.610Z,23.91
2023-05-06T15:54:22.624Z,24.24
2023-05-06T15:56:50.388Z,24.01
2023-05-06T15:59:18.159Z,24.03
2023-05-06T16:04:16.917Z,23.46
2023-05-06T16:06:44.758Z,23.56
2023-05-06T16:09:12.593Z,23.55
2023-05-06T16:11:41.965Z,23.35
2023-05-06T16:14:09.704Z,23.41
2023-05-06T16:16:37.566Z,23.50
2023-05-06T16:19:05.600Z,23.41
2023-05-06T16:21:33.347Z,23.51
2023-05-06T16:24:02.374Z,23.75
2023-05-06T16:26:30.368Z,23.43
2023-05-06T16:29:01.353Z,23.61
2023-05-06T16:31:29.174Z,23.36
2023-05-06T16:33:57.040Z,23.50
2023-05-06T16:36:24.836Z,23.31
2023-05-06T16:38:52.578Z,23.20
2023-05-06T16:41:20.756Z,23.23
2023-05-06T16:43:48.567Z,23.33
2023-05-06T16:46:17.632Z,23.31
2023-05-06T16:48:45.517Z,23.28
2023-05-06T16:51:15.740Z,23.26
2023-05-06T16:53:43.599Z,22.76
2023-05-06T16:56:11.413Z,22.54
2023-05-06T16:58:39.127Z,22.82
2023-05-06T17:01:08.276Z,22.98
2023-05-06T17:03:38.174Z,23.11
2023-05-06T17:06:06.251Z,23.10
2023-05-06T17:08:36.249Z,23.37
2023-05-06T17:11:07.468Z,23.42
2023-05-06T17:13:35.571Z,23.27
2023-05-06T17:16:03.240Z,23.25
2023-05-06T17:18:31.221Z,22.72
2023-05-06T17:21:00.341Z,22.12
2023-05-06T17:23:28.002Z,22.21
2023-05-06T17:25:57.039Z,22.03
2023-05-06T17:28:24.911Z,22.15
2023-05-06T17:30:52.755Z,22.36
2023-05-06T17:33:20.459Z,22.30
2023-05-06T17:35:48.211Z,22.01
2023-05-06T17:38:17.770Z,22.19
2023-05-06T17:40:45.457Z,22.03
2023-05-06T17:43:13.087Z,21.87
2023-05-06T17:45:41.585Z,21.59
2023-05-06T17:48:09.322Z,21.21
2023-05-06T17:50:36.991Z,21.40
2023-05-06T17:53:04.708Z,21.46
2023-05-06T17:55:33.784Z,21.05
2023-05-06T17:58:01.582Z,20.94
2023-05-06T18:00:29.357Z,21.43
2023-05-06T18:02:57.718Z,21.10
2023-05-06T18:05:26.319Z,21.16
2023-05-06T18:07:54.203Z,21.21
2023-05-06T18:10:21.953Z,21.22
2023-05-06T18:12:51.181Z,21.24
2023-05-06T18:15:18.888Z,21.22
2023-05-06T18:17:46.910Z,21.24
2023-05-06T18:20:14.877Z,21.28
2023-05-06T18:22:43.038Z,20.99
2023-05-06T18:25:11.692Z,21.54
2023-05-06T18:27:39.701Z,20.40
2023-05-06T18:30:09.652Z,21.46
2023-05-06T18:32:37.448Z,20.98
2023-05-06T18:35:05.565Z,20.94
2023-05-06T18:37:33.284Z,20.89
2023-05-06T18:40:01.007Z,21.28
2023-05-06T18:42:28.939Z,20.93
2023-05-06T18:44:56.812Z,21.07
2023-05-06T18:47:26.356Z,21.39
2023-05-06T18:49:54.238Z,21.49
2023-05-06T18:52:22.994Z,21.24
2023-05-06T18:54:50.646Z,21.32
2023-05-06T18:57:19.546Z,21.36
2023-05-06T18:59:47.300Z,21.32
2023-05-06T19:02:15.110Z,21.30
2023-05-06T19:04:44.507Z,21.03
2023-05-06T19:07:13.771Z,20.91
2023-05-06T19:09:43.096Z,20.76
2023-05-06T19:12:11.448Z,20.11
2023-05-06T19:14:39.162Z,20.35
2023-05-06T19:17:06.983Z,20.21
2023-05-06T19:19:34.777Z,20.33
2023-05-06T19:22:04.161Z,20.28
2023-05-06T19:24:31.891Z,20.28
2023-05-06T19:26:59.631Z,20.24
2023-05-06T19:29:27.336Z,20.03
2023-05-06T19:31:55.226Z,20.08
2023-05-06T19:34:22.878Z,19.97
2023-05-06T19:36:50.606Z,19.88
2023-05-06T19:39:21.266Z,19.84
2023-05-06T19:41:49.006Z,19.93
2023-05-06T19:44:16.784Z,19.86
2023-05-06T19:46:44.533Z,19.99
2023-05-06T19:49:12.277Z,19.81
2023-05-06T19:51:39.996Z,20.03
2023-05-06T19:54:07.729Z,20.02
2023-05-06T19:56:36.885Z,19.96
2023-05-06T19:59:04.633Z,19.71
2023-05-06T20:01:32.422Z,20.01
2023-05-06T20:04:00.305Z,19.94
2023-05-06T20:06:29.540Z,19.91
2023-05-06T20:08:57.209Z,19.61
2023-05-06T20:11:25.790Z,19.79
2023-05-06T20:13:54.940Z,20.03
2023-05-06T20:16:23.012Z,20.08
2023-05-06T20:18:51.487Z,19.82
2023-05-06T20:21:19.222Z,19.78
2023-05-06T20:23:46.926Z,19.75
2023-05-06T20:26:14.642Z,19.92
2023-05-06T20:28:42.361Z,19.81
2023-05-06T20:31:11.503Z,19.72
2023-05-06T20:33:39.272Z,19.73
2023-05-06T20:36:07.173Z,19.76
2023-05-06T20:38:34.864Z,19.58
2023-05-06T20:41:03.049Z,19.58
2023-05-06T20:43:31.718Z,19.75
2023-05-06T20:45:59.478Z,19.33
2023-05-06T20:48:30.527Z,19.48
2023-05-06T20:50:58.250Z,19.53
2023-05-06T20:53:27.123Z,19.21
2023-05-06T20:55:54.882Z,19.24
2023-05-06T20:58:22.657Z,19.35
2023-05-06T21:00:50.489Z,19.40
2023-05-06T21:03:18.405Z,19.39
2023-05-06T21:05:47.552Z,19.34
2023-05-06T21:08:15.907Z,19.30
2023-05-06T21:10:43.570Z,19.03
2023-05-06T21:13:11.358Z,19.05
2023-05-06T21:15:39.378Z,19.10
2023-05-06T21:18:07.155Z,19.13
2023-05-06T21:20:35.046Z,19.01
2023-05-06T21:23:04.386Z,18.91
2023-05-06T21:25:32.147Z,18.88
2023-05-06T21:28:03.298Z,18.80
2023-05-06T21:30:31.211Z,18.64
2023-05-06T21:32:59.199Z,18.62
2023-05-06T21:35:26.944Z,18.73
2023-05-06T21:37:54.634Z,18.83
2023-05-06T21:40:23.767Z,18.84
2023-05-06T21:42:51.900Z,18.77
2023-05-06T21:45:20.152Z,19.01
2023-05-06T21:47:48.669Z,19.06
2023-05-06T21:50:16.605Z,19.00
2023-05-06T21:52:44.324Z,19.08
2023-05-06T21:55:12.286Z,19.01
2023-05-06T21:57:41.557Z,19.22
2023-05-06T22:00:12.249Z,19.17
2023-05-06T22:02:41.036Z,18.88
2023-05-06T22:05:09.673Z,19.03
2023-05-06T22:07:37.585Z,18.91
2023-05-06T22:10:06.119Z,19.02
2023-05-06T22:12:33.869Z,18.93
2023-05-06T22:15:03.006Z,19.03
2023-05-06T22:17:32.689Z,18.78
2023-05-06T22:20:02.365Z,18.77
2023-05-06T22:22:31.145Z,18.87
2023-05-06T22:24:58.904Z,18.87
2023-05-06T22:27:26.551Z,19.04
2023-05-06T22:29:54.371Z,19.07
2023-05-06T22:32:23.490Z,18.76
2023-05-06T22:34:51.253Z,19.01
2023-05-06T22:37:19.748Z,18.79
2023-05-06T22:39:47.640Z,18.58
2023-05-06T22:42:15.292Z,18.62
2023-05-06T22:44:43.918Z,18.48
2023-05-06T22:47:11.608Z,18.86
2023-05-06T22:49:40.734Z,18.70
2023-05-06T22:52:08.515Z,18.84
2023-05-06T22:54:36.208Z,18.72
2023-05-06T22:57:03.996Z,18.40
2023-05-06T22:59:31.694Z,18.34
2023-05-06T23:01:59.380Z,18.79
2023-05-06T23:04:27.106Z,18.55
2023-05-06T23:06:57.334Z,18.77
2023-05-06T23:09:25.026Z,18.63
2023-05-06T23:11:52.732Z,18.65
2023-05-06T23:14:20.470Z,18.67
2023-05-06T23:16:48.225Z,18.53
2023-05-06T23:19:15.970Z,18.78
2023-05-06T23:21:44.014Z,18.71
2023-05-06T23:24:13.155Z,18.57
2023-05-06T23:26:40.902Z,18.57
2023-05-06T23:29:11.098Z,18.53
2023-05-06T23:31:38.794Z,18.70
2023-05-06T23:34:06.450Z,18.70
2023-05-06T23:36:35.016Z,18.46
2023-05-06T23:39:03.009Z,17.91
2023-05-06T23:41:32.260Z,18.52
2023-05-06T23:43:59.935Z,18.74
2023-05-06T23:46:28.023Z,18.80
2023-05-06T23:48:55.822Z,18.30
2023-05-06T23:51:23.555Z,18.57
2023-05-06T23:53:51.324Z,18.86
2023-05-06T23:56:20.458Z,18.39
2023-05-06T23:58:49.544Z,18.37
